sensor_id;sensor_type;location;lat;lon;timestamp;P1;durP1;ratioP1;P2;durP2;ratioP2
51758;SDS011;66684;47.568;18.734;2023-05-17T00:00:08;18.30;;;8.02;;
51758;SDS011;66684;47.568;18.734;2023-05-17T00:02:35;19.85;;;8.32;;
51758;SDS011;66684;47.568;18.734;2023-05-17T00:05:01;17.35;;;7.57;;
51758;SDS011;66684;47.568;18.734;2023-05-17T00:07:28;16.80;;;8.10;;
51758;SDS011;66684;47.568;18.734;2023-05-17T00:09:53;13.45;;;7.57;;
51758;SDS011;66684;47.568;18.734;2023-05-17T00:12:19;14.07;;;7.47;;
51758;SDS011;66684;47.568;18.734;2023-05-17T00:14:45;14.95;;;7.78;;
51758;SDS011;66684;47.568;18.734;2023-05-17T00:17:11;13.80;;;7.10;;
51758;SDS011;66684;47.568;18.734;2023-05-17T00:19:37;13.00;;;7.50;;
51758;SDS011;66684;47.568;18.734;2023-05-17T00:22:03;16.50;;;7.62;;
51758;SDS011;66684;47.568;18.734;2023-05-17T00:24:29;14.18;;;7.07;;
51758;SDS011;66684;47.568;18.734;2023-05-17T00:26:55;15.52;;;7.43;;
51758;SDS011;66684;47.568;18.734;2023-05-17T00:29:20;12.75;;;6.60;;
51758;SDS011;66684;47.568;18.734;2023-05-17T00:31:46;10.27;;;6.65;;
51758;SDS011;66684;47.568;18.734;2023-05-17T00:34:12;12.07;;;6.90;;
51758;SDS011;66684;47.568;18.734;2023-05-17T00:36:38;14.80;;;6.70;;
51758;SDS011;66684;47.568;18.734;2023-05-17T00:39:04;13.13;;;7.35;;
51758;SDS011;66684;47.568;18.734;2023-05-17T00:41:30;10.68;;;6.78;;
51758;SDS011;66684;47.568;18.734;2023-05-17T00:43:56;10.55;;;6.40;;
51758;SDS011;66684;47.568;18.734;2023-05-17T00:46:21;13.90;;;7.25;;
51758;SDS011;66684;47.568;18.734;2023-05-17T00:48:47;10.90;;;6.70;;
51758;SDS011;66684;47.568;18.734;2023-05-17T00:51:13;12.00;;;7.12;;
51758;SDS011;66684;47.568;18.734;2023-05-17T00:53:43;14.98;;;7.65;;
51758;SDS011;66684;47.568;18.734;2023-05-17T00:56:10;12.60;;;7.03;;
51758;SDS011;66684;47.568;18.734;2023-05-17T00:58:36;14.25;;;7.60;;
51758;SDS011;66684;47.568;18.734;2023-05-17T01:01:02;13.88;;;7.25;;
51758;SDS011;66684;47.568;18.734;2023-05-17T01:03:29;14.13;;;7.65;;
51758;SDS011;66684;47.568;18.734;2023-05-17T01:05:54;14.30;;;7.53;;
51758;SDS011;66684;47.568;18.734;2023-05-17T01:08:20;13.70;;;7.37;;
51758;SDS011;66684;47.568;18.734;2023-05-17T01:11:11;16.08;;;7.32;;
51758;SDS011;66684;47.568;18.734;2023-05-17T01:13:43;15.35;;;7.70;;
51758;SDS011;66684;47.568;18.734;2023-05-17T01:21:58;13.05;;;7.32;;
51758;SDS011;66684;47.568;18.734;2023-05-17T01:27:48;11.73;;;7.62;;
51758;SDS011;66684;47.568;18.734;2023-05-17T01:30:15;17.05;;;7.60;;
51758;SDS011;66684;47.568;18.734;2023-05-17T01:32:44;13.95;;;7.60;;
51758;SDS011;66684;47.568;18.734;2023-05-17T01:35:10;15.90;;;7.40;;
51758;SDS011;66684;47.568;18.734;2023-05-17T01:37:37;13.00;;;7.12;;
51758;SDS011;66684;47.568;18.734;2023-05-17T01:40:04;11.80;;;6.78;;
51758;SDS011;66684;47.568;18.734;2023-05-17T01:42:33;13.57;;;7.60;;
51758;SDS011;66684;47.568;18.734;2023-05-17T01:47:49;12.67;;;7.93;;
51758;SDS011;66684;47.568;18.734;2023-05-17T01:50:22;10.55;;;7.68;;
51758;SDS011;66684;47.568;18.734;2023-05-17T01:52:53;15.38;;;7.15;;
51758;SDS011;66684;47.568;18.734;2023-05-17T01:55:29;13.60;;;7.32;;
51758;SDS011;66684;47.568;18.734;2023-05-17T01:58:14;13.45;;;7.57;;
51758;SDS011;66684;47.568;18.734;2023-05-17T02:00:41;12.93;;;7.70;;
51758;SDS011;66684;47.568;18.734;2023-05-17T02:03:19;13.52;;;7.95;;
51758;SDS011;66684;47.568;18.734;2023-05-17T02:05:46;13.25;;;7.53;;
51758;SDS011;66684;47.568;18.734;2023-05-17T02:08:12;11.45;;;8.15;;
51758;SDS011;66684;47.568;18.734;2023-05-17T02:10:38;16.98;;;7.85;;
51758;SDS011;66684;47.568;18.734;2023-05-17T02:13:04;15.57;;;8.70;;
51758;SDS011;66684;47.568;18.734;2023-05-17T02:15:30;17.90;;;8.80;;
51758;SDS011;66684;47.568;18.734;2023-05-17T02:17:56;12.95;;;7.90;;
51758;SDS011;66684;47.568;18.734;2023-05-17T02:20:22;12.35;;;8.15;;
51758;SDS011;66684;47.568;18.734;2023-05-17T02:22:48;15.85;;;9.43;;
51758;SDS011;66684;47.568;18.734;2023-05-17T02:25:14;18.37;;;12.05;;
51758;SDS011;66684;47.568;18.734;2023-05-17T02:27:40;20.10;;;12.95;;
51758;SDS011;66684;47.568;18.734;2023-05-17T02:30:06;18.50;;;14.00;;
51758;SDS011;66684;47.568;18.734;2023-05-17T02:32:33;21.20;;;12.90;;
51758;SDS011;66684;47.568;18.734;2023-05-17T02:34:58;18.20;;;12.02;;
51758;SDS011;66684;47.568;18.734;2023-05-17T02:37:24;15.80;;;12.68;;
51758;SDS011;66684;47.568;18.734;2023-05-17T02:39:50;16.27;;;12.50;;
51758;SDS011;66684;47.568;18.734;2023-05-17T02:42:16;18.05;;;12.27;;
51758;SDS011;66684;47.568;18.734;2023-05-17T02:44:42;20.70;;;12.82;;
51758;SDS011;66684;47.568;18.734;2023-05-17T02:47:08;17.73;;;11.63;;
51758;SDS011;66684;47.568;18.734;2023-05-17T02:49:34;14.80;;;10.57;;
51758;SDS011;66684;47.568;18.734;2023-05-17T02:52:00;15.90;;;10.75;;
51758;SDS011;66684;47.568;18.734;2023-05-17T02:54:26;11.85;;;10.07;;
51758;SDS011;66684;47.568;18.734;2023-05-17T02:56:53;13.70;;;10.48;;
51758;SDS011;66684;47.568;18.734;2023-05-17T02:59:19;12.10;;;10.27;;
51758;SDS011;66684;47.568;18.734;2023-05-17T03:01:45;16.37;;;10.48;;
51758;SDS011;66684;47.568;18.734;2023-05-17T03:04:10;14.73;;;10.45;;
51758;SDS011;66684;47.568;18.734;2023-05-17T03:06:36;13.80;;;10.70;;
51758;SDS011;66684;47.568;18.734;2023-05-17T03:09:02;14.38;;;10.63;;
51758;SDS011;66684;47.568;18.734;2023-05-17T03:11:28;13.20;;;10.65;;
51758;SDS011;66684;47.568;18.734;2023-05-17T03:13:54;10.38;;;9.02;;
51758;SDS011;66684;47.568;18.734;2023-05-17T03:16:20;12.35;;;9.43;;
51758;SDS011;66684;47.568;18.734;2023-05-17T03:18:46;12.18;;;9.30;;
51758;SDS011;66684;47.568;18.734;2023-05-17T03:21:12;12.10;;;9.63;;
51758;SDS011;66684;47.568;18.734;2023-05-17T03:23:37;11.90;;;10.50;;
51758;SDS011;66684;47.568;18.734;2023-05-17T03:26:03;12.88;;;9.00;;
51758;SDS011;66684;47.568;18.734;2023-05-17T03:28:29;11.35;;;9.40;;
51758;SDS011;66684;47.568;18.734;2023-05-17T03:30:55;12.00;;;9.35;;
51758;SDS011;66684;47.568;18.734;2023-05-17T03:33:21;13.48;;;8.43;;
51758;SDS011;66684;47.568;18.734;2023-05-17T03:35:47;9.70;;;8.32;;
51758;SDS011;66684;47.568;18.734;2023-05-17T03:38:13;9.95;;;7.30;;
51758;SDS011;66684;47.568;18.734;2023-05-17T03:40:39;10.38;;;7.85;;
51758;SDS011;66684;47.568;18.734;2023-05-17T03:43:05;8.13;;;7.15;;
51758;SDS011;66684;47.568;18.734;2023-05-17T03:45:31;8.43;;;6.65;;
51758;SDS011;66684;47.568;18.734;2023-05-17T03:47:57;9.43;;;7.07;;
51758;SDS011;66684;47.568;18.734;2023-05-17T03:50:23;10.07;;;6.62;;
51758;SDS011;66684;47.568;18.734;2023-05-17T03:52:49;11.70;;;7.00;;
51758;SDS011;66684;47.568;18.734;2023-05-17T03:55:15;9.30;;;7.53;;
51758;SDS011;66684;47.568;18.734;2023-05-17T03:57:41;9.23;;;7.07;;
51758;SDS011;66684;47.568;18.734;2023-05-17T04:00:07;9.50;;;6.82;;
51758;SDS011;66684;47.568;18.734;2023-05-17T04:02:36;9.43;;;7.25;;
51758;SDS011;66684;47.568;18.734;2023-05-17T04:05:03;9.50;;;7.07;;
51758;SDS011;66684;47.568;18.734;2023-05-17T04:07:29;10.93;;;7.40;;
51758;SDS011;66684;47.568;18.734;2023-05-17T04:09:55;8.02;;;6.68;;
51758;SDS011;66684;47.568;18.734;2023-05-17T04:12:27;10.90;;;7.05;;
51758;SDS011;66684;47.568;18.734;2023-05-17T04:14:53;13.30;;;7.47;;
51758;SDS011;66684;47.568;18.734;2023-05-17T04:17:19;10.65;;;7.28;;
51758;SDS011;66684;47.568;18.734;2023-05-17T04:19:45;9.73;;;6.78;;
51758;SDS011;66684;47.568;18.734;2023-05-17T04:22:11;15.63;;;8.10;;
51758;SDS011;66684;47.568;18.734;2023-05-17T04:24:37;12.10;;;8.23;;
51758;SDS011;66684;47.568;18.734;2023-05-17T04:27:03;14.23;;;8.15;;
51758;SDS011;66684;47.568;18.734;2023-05-17T04:29:29;12.88;;;8.55;;
51758;SDS011;66684;47.568;18.734;2023-05-17T04:31:55;10.40;;;7.65;;
51758;SDS011;66684;47.568;18.734;2023-05-17T04:34:21;11.70;;;7.53;;
51758;SDS011;66684;47.568;18.734;2023-05-17T04:36:48;11.88;;;7.37;;
51758;SDS011;66684;47.568;18.734;2023-05-17T04:39:14;11.68;;;8.15;;
51758;SDS011;66684;47.568;18.734;2023-05-17T04:41:39;11.23;;;7.53;;
51758;SDS011;66684;47.568;18.734;2023-05-17T04:44:05;9.63;;;7.18;;
51758;SDS011;66684;47.568;18.734;2023-05-17T04:46:32;9.25;;;7.15;;
51758;SDS011;66684;47.568;18.734;2023-05-17T04:48:58;10.32;;;7.00;;
51758;SDS011;66684;47.568;18.734;2023-05-17T04:51:24;11.30;;;6.93;;
51758;SDS011;66684;47.568;18.734;2023-05-17T04:53:51;10.18;;;7.07;;
51758;SDS011;66684;47.568;18.734;2023-05-17T04:56:17;8.48;;;6.82;;
51758;SDS011;66684;47.568;18.734;2023-05-17T04:58:43;10.48;;;6.53;;
51758;SDS011;66684;47.568;18.734;2023-05-17T05:01:09;7.62;;;6.62;;
51758;SDS011;66684;47.568;18.734;2023-05-17T05:03:36;8.55;;;7.12;;
51758;SDS011;66684;47.568;18.734;2023-05-17T05:06:02;7.75;;;6.57;;
51758;SDS011;66684;47.568;18.734;2023-05-17T05:08:28;7.78;;;6.28;;
51758;SDS011;66684;47.568;18.734;2023-05-17T05:10:55;11.50;;;6.97;;
51758;SDS011;66684;47.568;18.734;2023-05-17T05:13:21;13.60;;;7.32;;
51758;SDS011;66684;47.568;18.734;2023-05-17T05:15:47;10.02;;;6.78;;
51758;SDS011;66684;47.568;18.734;2023-05-17T05:18:13;17.05;;;13.18;;
51758;SDS011;66684;47.568;18.734;2023-05-17T05:20:39;13.20;;;11.48;;
51758;SDS011;66684;47.568;18.734;2023-05-17T05:23:05;11.90;;;9.95;;
51758;SDS011;66684;47.568;18.734;2023-05-17T05:25:31;10.70;;;8.07;;
51758;SDS011;66684;47.568;18.734;2023-05-17T05:27:57;9.77;;;8.25;;
51758;SDS011;66684;47.568;18.734;2023-05-17T05:30:23;10.63;;;7.55;;
51758;SDS011;66684;47.568;18.734;2023-05-17T05:32:49;11.43;;;10.00;;
51758;SDS011;66684;47.568;18.734;2023-05-17T05:35:16;12.82;;;10.95;;
51758;SDS011;66684;47.568;18.734;2023-05-17T05:37:42;11.15;;;9.95;;
51758;SDS011;66684;47.568;18.734;2023-05-17T05:40:08;9.18;;;7.78;;
51758;SDS011;66684;47.568;18.734;2023-05-17T05:42:35;8.30;;;7.25;;
51758;SDS011;66684;47.568;18.734;2023-05-17T05:45:01;9.93;;;7.93;;
51758;SDS011;66684;47.568;18.734;2023-05-17T05:47:27;15.02;;;8.30;;
51758;SDS011;66684;47.568;18.734;2023-05-17T05:49:53;11.23;;;7.93;;
51758;SDS011;66684;47.568;18.734;2023-05-17T05:52:19;11.43;;;7.97;;
51758;SDS011;66684;47.568;18.734;2023-05-17T05:54:45;9.93;;;7.85;;
51758;SDS011;66684;47.568;18.734;2023-05-17T05:57:11;8.25;;;7.20;;
51758;SDS011;66684;47.568;18.734;2023-05-17T05:59:37;9.52;;;7.45;;
51758;SDS011;66684;47.568;18.734;2023-05-17T06:02:03;8.45;;;7.30;;
51758;SDS011;66684;47.568;18.734;2023-05-17T06:04:29;13.15;;;6.80;;
51758;SDS011;66684;47.568;18.734;2023-05-17T06:06:54;8.55;;;7.43;;
51758;SDS011;66684;47.568;18.734;2023-05-17T06:09:20;12.93;;;7.62;;
51758;SDS011;66684;47.568;18.734;2023-05-17T06:11:46;9.07;;;7.45;;
51758;SDS011;66684;47.568;18.734;2023-05-17T06:14:12;11.75;;;7.65;;
51758;SDS011;66684;47.568;18.734;2023-05-17T06:16:38;10.52;;;8.38;;
51758;SDS011;66684;47.568;18.734;2023-05-17T06:19:04;11.45;;;8.65;;
51758;SDS011;66684;47.568;18.734;2023-05-17T06:21:30;10.20;;;8.75;;
51758;SDS011;66684;47.568;18.734;2023-05-17T06:23:56;12.02;;;7.87;;
51758;SDS011;66684;47.568;18.734;2023-05-17T06:26:22;10.15;;;8.13;;
51758;SDS011;66684;47.568;18.734;2023-05-17T06:28:48;11.68;;;8.18;;
51758;SDS011;66684;47.568;18.734;2023-05-17T06:31:14;10.05;;;7.82;;
51758;SDS011;66684;47.568;18.734;2023-05-17T06:33:39;13.20;;;8.07;;
51758;SDS011;66684;47.568;18.734;2023-05-17T06:36:05;8.73;;;7.25;;
51758;SDS011;66684;47.568;18.734;2023-05-17T06:38:31;10.57;;;8.10;;
51758;SDS011;66684;47.568;18.734;2023-05-17T06:40:57;9.68;;;7.75;;
51758;SDS011;66684;47.568;18.734;2023-05-17T06:43:23;11.10;;;7.68;;
51758;SDS011;66684;47.568;18.734;2023-05-17T06:45:49;10.25;;;6.78;;
51758;SDS011;66684;47.568;18.734;2023-05-17T06:48:15;9.38;;;6.05;;
51758;SDS011;66684;47.568;18.734;2023-05-17T06:50:41;8.60;;;6.70;;
51758;SDS011;66684;47.568;18.734;2023-05-17T06:53:07;10.80;;;6.30;;
51758;SDS011;66684;47.568;18.734;2023-05-17T06:55:33;7.15;;;5.55;;
51758;SDS011;66684;47.568;18.734;2023-05-17T06:57:59;9.82;;;4.93;;
51758;SDS011;66684;47.568;18.734;2023-05-17T07:00:25;4.70;;;4.20;;
51758;SDS011;66684;47.568;18.734;2023-05-17T07:02:50;4.60;;;4.07;;
51758;SDS011;66684;47.568;18.734;2023-05-17T07:05:16;5.43;;;4.22;;
51758;SDS011;66684;47.568;18.734;2023-05-17T07:07:42;5.93;;;3.95;;
51758;SDS011;66684;47.568;18.734;2023-05-17T07:10:08;5.32;;;4.00;;
51758;SDS011;66684;47.568;18.734;2023-05-17T07:12:34;4.57;;;3.90;;
51758;SDS011;66684;47.568;18.734;2023-05-17T07:15:00;5.55;;;4.00;;
51758;SDS011;66684;47.568;18.734;2023-05-17T07:17:27;6.97;;;3.75;;
51758;SDS011;66684;47.568;18.734;2023-05-17T07:19:53;4.35;;;3.53;;
51758;SDS011;66684;47.568;18.734;2023-05-17T07:22:19;3.70;;;3.28;;
51758;SDS011;66684;47.568;18.734;2023-05-17T07:24:45;6.07;;;3.50;;
51758;SDS011;66684;47.568;18.734;2023-05-17T07:27:11;4.55;;;2.83;;
51758;SDS011;66684;47.568;18.734;2023-05-17T07:29:37;6.57;;;3.22;;
51758;SDS011;66684;47.568;18.734;2023-05-17T07:32:03;4.12;;;3.10;;
51758;SDS011;66684;47.568;18.734;2023-05-17T07:34:29;4.30;;;2.90;;
51758;SDS011;66684;47.568;18.734;2023-05-17T07:36:55;4.32;;;2.75;;
51758;SDS011;66684;47.568;18.734;2023-05-17T07:39:21;6.28;;;2.50;;
51758;SDS011;66684;47.568;18.734;2023-05-17T07:41:47;3.87;;;2.45;;
51758;SDS011;66684;47.568;18.734;2023-05-17T07:44:13;3.92;;;2.95;;
51758;SDS011;66684;47.568;18.734;2023-05-17T07:46:39;6.10;;;2.42;;
51758;SDS011;66684;47.568;18.734;2023-05-17T07:49:05;3.55;;;2.40;;
51758;SDS011;66684;47.568;18.734;2023-05-17T07:51:31;3.30;;;2.30;;
51758;SDS011;66684;47.568;18.734;2023-05-17T07:53:56;2.87;;;2.50;;
51758;SDS011;66684;47.568;18.734;2023-05-17T07:56:22;3.25;;;2.50;;
51758;SDS011;66684;47.568;18.734;2023-05-17T07:58:48;5.80;;;2.20;;
51758;SDS011;66684;47.568;18.734;2023-05-17T08:01:15;2.50;;;2.05;;
51758;SDS011;66684;47.568;18.734;2023-05-17T08:03:40;7.20;;;2.15;;
51758;SDS011;66684;47.568;18.734;2023-05-17T08:06:15;3.10;;;2.40;;
51758;SDS011;66684;47.568;18.734;2023-05-17T08:08:41;4.18;;;2.42;;
51758;SDS011;66684;47.568;18.734;2023-05-17T08:11:10;3.08;;;2.10;;
51758;SDS011;66684;47.568;18.734;2023-05-17T08:13:37;3.80;;;2.25;;
51758;SDS011;66684;47.568;18.734;2023-05-17T08:16:03;2.55;;;2.05;;
51758;SDS011;66684;47.568;18.734;2023-05-17T08:18:32;5.65;;;2.20;;
51758;SDS011;66684;47.568;18.734;2023-05-17T08:20:58;7.10;;;2.80;;
51758;SDS011;66684;47.568;18.734;2023-05-17T08:23:24;9.38;;;2.45;;
51758;SDS011;66684;47.568;18.734;2023-05-17T08:25:50;3.20;;;2.55;;
51758;SDS011;66684;47.568;18.734;2023-05-17T08:28:17;5.95;;;2.37;;
51758;SDS011;66684;47.568;18.734;2023-05-17T08:30:43;3.05;;;2.30;;
51758;SDS011;66684;47.568;18.734;2023-05-17T08:33:08;3.50;;;2.40;;
51758;SDS011;66684;47.568;18.734;2023-05-17T08:35:35;4.60;;;2.55;;
51758;SDS011;66684;47.568;18.734;2023-05-17T08:38:01;3.65;;;2.47;;
51758;SDS011;66684;47.568;18.734;2023-05-17T08:40:27;6.37;;;2.75;;
51758;SDS011;66684;47.568;18.734;2023-05-17T08:42:53;7.07;;;2.47;;
51758;SDS011;66684;47.568;18.734;2023-05-17T08:45:19;4.15;;;2.53;;
51758;SDS011;66684;47.568;18.734;2023-05-17T08:47:46;4.85;;;2.67;;
51758;SDS011;66684;47.568;18.734;2023-05-17T08:50:13;4.40;;;2.80;;
51758;SDS011;66684;47.568;18.734;2023-05-17T08:52:40;4.90;;;2.95;;
51758;SDS011;66684;47.568;18.734;2023-05-17T08:55:09;5.25;;;2.97;;
51758;SDS011;66684;47.568;18.734;2023-05-17T08:57:35;7.43;;;3.20;;
51758;SDS011;66684;47.568;18.734;2023-05-17T09:00:04;7.55;;;3.30;;
51758;SDS011;66684;47.568;18.734;2023-05-17T09:02:37;7.85;;;2.95;;
51758;SDS011;66684;47.568;18.734;2023-05-17T09:05:04;10.80;;;2.97;;
51758;SDS011;66684;47.568;18.734;2023-05-17T09:07:31;5.87;;;2.78;;
51758;SDS011;66684;47.568;18.734;2023-05-17T09:09:57;5.85;;;2.80;;
51758;SDS011;66684;47.568;18.734;2023-05-17T09:12:23;6.45;;;2.70;;
51758;SDS011;66684;47.568;18.734;2023-05-17T09:14:49;6.40;;;3.00;;
51758;SDS011;66684;47.568;18.734;2023-05-17T09:17:16;4.97;;;2.47;;
51758;SDS011;66684;47.568;18.734;2023-05-17T09:19:43;4.37;;;3.12;;
51758;SDS011;66684;47.568;18.734;2023-05-17T09:22:11;5.05;;;3.03;;
51758;SDS011;66684;47.568;18.734;2023-05-17T09:24:39;5.82;;;3.35;;
51758;SDS011;66684;47.568;18.734;2023-05-17T09:27:06;5.37;;;3.53;;
51758;SDS011;66684;47.568;18.734;2023-05-17T09:29:32;4.78;;;3.00;;
51758;SDS011;66684;47.568;18.734;2023-05-17T09:32:14;7.40;;;4.05;;
51758;SDS011;66684;47.568;18.734;2023-05-17T09:34:42;4.55;;;3.62;;
51758;SDS011;66684;47.568;18.734;2023-05-17T09:37:13;5.35;;;3.50;;
51758;SDS011;66684;47.568;18.734;2023-05-17T09:39:41;6.57;;;3.83;;
51758;SDS011;66684;47.568;18.734;2023-05-17T09:42:09;5.10;;;3.92;;
51758;SDS011;66684;47.568;18.734;2023-05-17T09:44:45;6.22;;;4.15;;
51758;SDS011;66684;47.568;18.734;2023-05-17T09:47:28;5.80;;;3.85;;
51758;SDS011;66684;47.568;18.734;2023-05-17T09:49:55;5.97;;;4.10;;
51758;SDS011;66684;47.568;18.734;2023-05-17T09:52:22;7.78;;;4.03;;
51758;SDS011;66684;47.568;18.734;2023-05-17T09:54:52;7.05;;;3.60;;
51758;SDS011;66684;47.568;18.734;2023-05-17T09:57:19;4.62;;;3.58;;
51758;SDS011;66684;47.568;18.734;2023-05-17T09:59:45;8.55;;;3.95;;
51758;SDS011;66684;47.568;18.734;2023-05-17T10:02:16;7.22;;;3.85;;
51758;SDS011;66684;47.568;18.734;2023-05-17T10:04:45;5.90;;;3.55;;
51758;SDS011;66684;47.568;18.734;2023-05-17T10:07:11;6.47;;;3.17;;
51758;SDS011;66684;47.568;18.734;2023-05-17T10:09:38;6.10;;;3.35;;
51758;SDS011;66684;47.568;18.734;2023-05-17T10:12:05;4.57;;;3.70;;
51758;SDS011;66684;47.568;18.734;2023-05-17T10:14:32;6.10;;;3.30;;
51758;SDS011;66684;47.568;18.734;2023-05-17T10:17:00;7.18;;;3.40;;
51758;SDS011;66684;47.568;18.734;2023-05-17T10:19:27;3.87;;;2.90;;
51758;SDS011;66684;47.568;18.734;2023-05-17T10:21:53;5.37;;;3.00;;
51758;SDS011;66684;47.568;18.734;2023-05-17T10:24:22;5.22;;;3.05;;
51758;SDS011;66684;47.568;18.734;2023-05-17T10:26:51;12.82;;;2.75;;
51758;SDS011;66684;47.568;18.734;2023-05-17T10:29:17;5.90;;;2.80;;
51758;SDS011;66684;47.568;18.734;2023-05-17T10:31:45;7.25;;;3.00;;
51758;SDS011;66684;47.568;18.734;2023-05-17T10:34:11;5.35;;;3.30;;
51758;SDS011;66684;47.568;18.734;2023-05-17T10:36:42;5.18;;;2.92;;
51758;SDS011;66684;47.568;18.734;2023-05-17T10:39:08;6.32;;;2.95;;
51758;SDS011;66684;47.568;18.734;2023-05-17T10:41:36;4.57;;;3.08;;
51758;SDS011;66684;47.568;18.734;2023-05-17T10:44:05;3.95;;;2.58;;
51758;SDS011;66684;47.568;18.734;2023-05-17T10:46:33;5.30;;;2.80;;
51758;SDS011;66684;47.568;18.734;2023-05-17T10:48:59;4.00;;;2.22;;
51758;SDS011;66684;47.568;18.734;2023-05-17T10:51:29;4.35;;;2.50;;
51758;SDS011;66684;47.568;18.734;2023-05-17T10:54:02;3.00;;;2.30;;
51758;SDS011;66684;47.568;18.734;2023-05-17T10:56:31;7.12;;;2.17;;
51758;SDS011;66684;47.568;18.734;2023-05-17T11:06:51;5.22;;;2.75;;
51758;SDS011;66684;47.568;18.734;2023-05-17T11:09:20;3.95;;;2.60;;
51758;SDS011;66684;47.568;18.734;2023-05-17T11:17:20;6.57;;;2.40;;
51758;SDS011;66684;47.568;18.734;2023-05-17T11:22:26;3.12;;;2.33;;
51758;SDS011;66684;47.568;18.734;2023-05-17T11:24:54;6.07;;;2.15;;
51758;SDS011;66684;47.568;18.734;2023-05-17T11:27:22;5.75;;;2.40;;
51758;SDS011;66684;47.568;18.734;2023-05-17T11:29:52;5.60;;;2.28;;
51758;SDS011;66684;47.568;18.734;2023-05-17T11:32:29;3.58;;;2.10;;
51758;SDS011;66684;47.568;18.734;2023-05-17T11:34:59;4.95;;;2.00;;
51758;SDS011;66684;47.568;18.734;2023-05-17T11:37:26;8.07;;;1.80;;
51758;SDS011;66684;47.568;18.734;2023-05-17T11:40:00;4.37;;;1.50;;
51758;SDS011;66684;47.568;18.734;2023-05-17T11:42:32;2.12;;;1.33;;
51758;SDS011;66684;47.568;18.734;2023-05-17T11:44:59;3.45;;;1.40;;
51758;SDS011;66684;47.568;18.734;2023-05-17T11:47:26;4.75;;;1.30;;
51758;SDS011;66684;47.568;18.734;2023-05-17T11:49:53;4.43;;;1.10;;
51758;SDS011;66684;47.568;18.734;2023-05-17T11:52:20;2.80;;;1.20;;
51758;SDS011;66684;47.568;18.734;2023-05-17T11:54:47;1.70;;;1.20;;
51758;SDS011;66684;47.568;18.734;2023-05-17T11:57:14;3.10;;;0.98;;
51758;SDS011;66684;47.568;18.734;2023-05-17T11:59:42;1.75;;;1.20;;
51758;SDS011;66684;47.568;18.734;2023-05-17T12:02:08;4.20;;;1.42;;
51758;SDS011;66684;47.568;18.734;2023-05-17T12:04:35;8.70;;;1.10;;
51758;SDS011;66684;47.568;18.734;2023-05-17T12:07:02;3.08;;;1.10;;
51758;SDS011;66684;47.568;18.734;2023-05-17T12:09:28;4.57;;;1.15;;
51758;SDS011;66684;47.568;18.734;2023-05-17T12:11:55;3.62;;;1.08;;
51758;SDS011;66684;47.568;18.734;2023-05-17T12:14:22;6.55;;;1.02;;
51758;SDS011;66684;47.568;18.734;2023-05-17T12:16:52;4.43;;;1.37;;
51758;SDS011;66684;47.568;18.734;2023-05-17T12:19:22;3.90;;;1.40;;
51758;SDS011;66684;47.568;18.734;2023-05-17T12:22:04;4.72;;;1.12;;
51758;SDS011;66684;47.568;18.734;2023-05-17T12:24:40;2.60;;;1.20;;
51758;SDS011;66684;47.568;18.734;2023-05-17T12:27:07;3.83;;;1.55;;
51758;SDS011;66684;47.568;18.734;2023-05-17T12:29:33;4.90;;;2.00;;
51758;SDS011;66684;47.568;18.734;2023-05-17T12:31:59;5.93;;;2.15;;
51758;SDS011;66684;47.568;18.734;2023-05-17T12:34:29;5.90;;;1.67;;
51758;SDS011;66684;47.568;18.734;2023-05-17T12:36:55;6.55;;;1.55;;
51758;SDS011;66684;47.568;18.734;2023-05-17T12:39:22;6.15;;;1.60;;
51758;SDS011;66684;47.568;18.734;2023-05-17T12:41:49;3.72;;;1.58;;
51758;SDS011;66684;47.568;18.734;2023-05-17T12:44:16;3.70;;;1.80;;
51758;SDS011;66684;47.568;18.734;2023-05-17T12:46:46;4.30;;;1.85;;
51758;SDS011;66684;47.568;18.734;2023-05-17T12:49:18;3.65;;;1.60;;
51758;SDS011;66684;47.568;18.734;2023-05-17T12:51:47;2.53;;;1.65;;
51758;SDS011;66684;47.568;18.734;2023-05-17T12:56:48;3.37;;;1.87;;
51758;SDS011;66684;47.568;18.734;2023-05-17T12:59:15;3.28;;;1.40;;
51758;SDS011;66684;47.568;18.734;2023-05-17T13:01:43;6.18;;;1.80;;
51758;SDS011;66684;47.568;18.734;2023-05-17T13:04:11;2.62;;;1.30;;
51758;SDS011;66684;47.568;18.734;2023-05-17T13:06:59;5.97;;;1.55;;
51758;SDS011;66684;47.568;18.734;2023-05-17T13:09:28;2.72;;;1.10;;
51758;SDS011;66684;47.568;18.734;2023-05-17T13:11:56;1.58;;;1.30;;
51758;SDS011;66684;47.568;18.734;2023-05-17T13:14:32;4.32;;;1.73;;
51758;SDS011;66684;47.568;18.734;2023-05-17T13:17:08;8.10;;;1.83;;
51758;SDS011;66684;47.568;18.734;2023-05-17T13:19:36;4.25;;;1.58;;
51758;SDS011;66684;47.568;18.734;2023-05-17T13:22:05;3.37;;;1.67;;
51758;SDS011;66684;47.568;18.734;2023-05-17T13:24:32;3.50;;;1.55;;
51758;SDS011;66684;47.568;18.734;2023-05-17T13:27:00;6.57;;;1.70;;
51758;SDS011;66684;47.568;18.734;2023-05-17T13:29:27;5.28;;;1.48;;
51758;SDS011;66684;47.568;18.734;2023-05-17T13:31:53;3.62;;;1.75;;
51758;SDS011;66684;47.568;18.734;2023-05-17T13:34:19;1.90;;;1.30;;
51758;SDS011;66684;47.568;18.734;2023-05-17T13:36:46;4.07;;;1.10;;
51758;SDS011;66684;47.568;18.734;2023-05-17T13:39:13;5.55;;;2.05;;
51758;SDS011;66684;47.568;18.734;2023-05-17T13:41:40;2.08;;;1.45;;
51758;SDS011;66684;47.568;18.734;2023-05-17T13:44:06;3.05;;;1.20;;
51758;SDS011;66684;47.568;18.734;2023-05-17T13:46:32;3.67;;;1.17;;
51758;SDS011;66684;47.568;18.734;2023-05-17T13:48:58;4.70;;;1.30;;
51758;SDS011;66684;47.568;18.734;2023-05-17T13:51:24;2.70;;;1.30;;
51758;SDS011;66684;47.568;18.734;2023-05-17T13:53:50;4.62;;;1.33;;
51758;SDS011;66684;47.568;18.734;2023-05-17T13:56:16;2.78;;;1.12;;
51758;SDS011;66684;47.568;18.734;2023-05-17T13:58:42;4.22;;;1.40;;
51758;SDS011;66684;47.568;18.734;2023-05-17T14:01:08;1.70;;;1.15;;
51758;SDS011;66684;47.568;18.734;2023-05-17T14:03:34;3.50;;;1.35;;
51758;SDS011;66684;47.568;18.734;2023-05-17T14:06:03;4.68;;;1.33;;
51758;SDS011;66684;47.568;18.734;2023-05-17T14:08:29;4.18;;;1.58;;
51758;SDS011;66684;47.568;18.734;2023-05-17T14:10:55;3.50;;;1.27;;
51758;SDS011;66684;47.568;18.734;2023-05-17T14:13:21;2.70;;;1.30;;
51758;SDS011;66684;47.568;18.734;2023-05-17T14:15:47;4.87;;;1.33;;
51758;SDS011;66684;47.568;18.734;2023-05-17T14:18:13;6.45;;;1.27;;
51758;SDS011;66684;47.568;18.734;2023-05-17T14:20:39;3.25;;;1.40;;
51758;SDS011;66684;47.568;18.734;2023-05-17T14:23:05;4.60;;;1.35;;
51758;SDS011;66684;47.568;18.734;2023-05-17T14:25:31;3.50;;;1.23;;
51758;SDS011;66684;47.568;18.734;2023-05-17T14:27:57;3.83;;;1.17;;
51758;SDS011;66684;47.568;18.734;2023-05-17T14:30:23;7.40;;;1.00;;
51758;SDS011;66684;47.568;18.734;2023-05-17T14:32:49;1.73;;;0.73;;
51758;SDS011;66684;47.568;18.734;2023-05-17T14:35:15;2.62;;;0.82;;
51758;SDS011;66684;47.568;18.734;2023-05-17T14:37:44;3.67;;;0.88;;
51758;SDS011;66684;47.568;18.734;2023-05-17T14:40:10;2.83;;;1.02;;
51758;SDS011;66684;47.568;18.734;2023-05-17T14:42:37;5.65;;;0.90;;
51758;SDS011;66684;47.568;18.734;2023-05-17T14:45:03;5.75;;;0.65;;
51758;SDS011;66684;47.568;18.734;2023-05-17T14:47:30;2.55;;;0.62;;
51758;SDS011;66684;47.568;18.734;2023-05-17T14:49:56;1.02;;;0.43;;
51758;SDS011;66684;47.568;18.734;2023-05-17T14:52:22;2.37;;;0.57;;
51758;SDS011;66684;47.568;18.734;2023-05-17T14:54:48;2.05;;;0.30;;
51758;SDS011;66684;47.568;18.734;2023-05-17T14:57:14;2.58;;;0.30;;